Time;durP1;ratioP1;P1;durP2;ratioP2;P2;SDS_P1;SDS_P2;PMS_P1;PMS_P2;Temp;Humidity;BMP_temperature;BMP_pressure;BME280_temperature;BME280_humidity;BME280_pressure;Samples;Min_cycle;Max_cycle;Signal;HPM_P1;HPM_P2
2022/01/24 00:00:58;;;;;;;;;;;3.30;99.90;;;;;;5020078;28;19917;-96
2022/01/24 00:03:25;;;;;;;;;;;4.40;99.90;;;;;;5019902;28;19949;-96
2022/01/24 00:05:51;;;;;;;;;;;3.60;99.90;;;;;;5020233;28;19969;-96
2022/01/24 00:08:18;;;;;;;;;;;3.80;99.90;;;;;;5020171;28;19969;-96
2022/01/24 00:10:47;;;;;;;;;;;3.30;99.90;;;;;;5020290;28;19913;-96
2022/01/24 00:16:21;;;;;;;;;;;3.30;99.90;;;;;;4985910;28;19914;-96
2022/01/24 00:26:58;;;;;;;;;;;3.30;99.90;;;;;;5020308;28;19917;-96
2022/01/24 00:29:26;;;;;;;;;;;3.40;99.90;;;;;;5019999;28;19929;-96
2022/01/24 00:31:54;;;;;;;;;;;3.40;99.90;;;;;;5020060;28;19940;-96
2022/01/24 00:34:23;;;;;;;;;;;3.40;99.90;;;;;;5019460;28;19921;-96
2022/01/24 00:36:51;;;;;;;;;;;4.10;99.90;;;;;;5019979;28;19925;-96
2022/01/24 00:39:18;;;;;;;;;;;3.50;99.90;;;;;;5019989;28;19913;-96
2022/01/24 00:41:51;;;;;;;;;;;3.30;99.90;;;;;;5019717;28;19921;-96
2022/01/24 00:44:42;;;;;;;;;;;3.30;99.90;;;;;;5019389;28;19914;-96
2022/01/24 00:47:15;;;;;;;;;;;3.40;99.90;;;;;;5019715;28;19914;-96
2022/01/24 00:49:55;;;;;;;;;;;3.40;99.90;;;;;;5019821;28;19913;-96
2022/01/24 00:55:07;;;;;;;;;;;3.90;99.90;;;;;;5018797;28;19921;-96
2022/01/24 00:57:33;;;;;;;;;;;3.30;99.90;;;;;;5019666;28;19940;-96
2022/01/24 01:00:01;;;;;;;;;;;3.30;99.90;;;;;;5019528;28;19993;-96
2022/01/24 01:02:29;;;;;;;;;;;3.30;99.90;;;;;;5019298;28;19945;-96
2022/01/24 01:05:09;;;;;;;;;;;4.40;99.90;;;;;;5019338;28;19934;-96
2022/01/24 01:07:40;;;;;;;;;;;3.30;99.90;;;;;;5019640;28;19910;-96
2022/01/24 01:18:37;;;;;;;;;;;3.20;99.90;;;;;;5019473;28;19932;-96
2022/01/24 01:21:10;;;;;;;;;;;4.20;99.90;;;;;;5018037;28;19930;-96
2022/01/24 01:23:40;;;;;;;;;;;3.20;99.90;;;;;;5017780;28;19936;-96
2022/01/24 01:26:12;;;;;;;;;;;3.30;99.90;;;;;;5018160;28;19933;-96
2022/01/24 01:28:42;;;;;;;;;;;3.20;99.90;;;;;;5018244;28;19925;-96
2022/01/24 01:31:16;;;;;;;;;;;3.70;99.90;;;;;;5018095;28;19930;-96
2022/01/24 01:33:55;;;;;;;;;;;3.00;99.90;;;;;;5017759;28;19973;-96
2022/01/24 01:36:35;;;;;;;;;;;3.20;99.90;;;;;;5018068;28;19917;-96
2022/01/24 01:53:15;;;;;;;;;;;3.00;99.90;;;;;;5017974;28;19922;-96
2022/01/24 01:55:42;;;;;;;;;;;3.70;99.90;;;;;;5017747;28;19910;-96
2022/01/24 01:58:10;;;;;;;;;;;3.30;99.90;;;;;;5017760;28;19917;-96
2022/01/24 02:00:38;;;;;;;;;;;3.80;99.90;;;;;;5017670;28;19986;-96
2022/01/24 02:03:04;;;;;;;;;;;3.10;99.90;;;;;;5017598;28;19973;-96
2022/01/24 02:05:33;;;;;;;;;;;3.10;99.90;;;;;;5017522;28;19973;-96
2022/01/24 02:07:59;;;;;;;;;;;3.70;99.90;;;;;;5020741;28;19977;-96
2022/01/24 02:10:26;;;;;;;;;;;3.50;99.90;;;;;;5021378;28;19924;-96
2022/01/24 02:12:55;;;;;;;;;;;3.10;99.90;;;;;;5017739;28;19969;-96
2022/01/24 02:15:26;;;;;;;;;;;3.30;99.90;;;;;;5021083;28;19910;-96
2022/01/24 02:18:04;;;;;;;;;;;3.30;99.90;;;;;;5021135;28;19916;-96
2022/01/24 02:20:54;;;;;;;;;;;3.50;99.90;;;;;;5021073;28;19949;-96
2022/01/24 02:23:38;;;;;;;;;;;2.70;99.90;;;;;;5020874;28;19926;-96
2022/01/24 02:26:08;;;;;;;;;;;3.10;99.90;;;;;;5020884;28;19921;-96
2022/01/24 02:28:46;;;;;;;;;;;3.00;99.90;;;;;;5021013;28;19913;-96
2022/01/24 02:31:35;;;;;;;;;;;3.10;99.90;;;;;;5021025;28;19973;-96
2022/01/24 02:34:02;;;;;;;;;;;3.30;99.90;;;;;;5015386;28;19914;-96
2022/01/24 02:36:29;;;;;;;;;;;3.10;99.90;;;;;;5001344;28;19914;-96
2022/01/24 02:39:07;;;;;;;;;;;3.10;99.90;;;;;;5001214;28;19957;-96
2022/01/24 02:49:47;;;;;;;;;;;3.00;99.90;;;;;;5019883;28;19917;-96
2022/01/24 02:52:14;;;;;;;;;;;3.00;99.90;;;;;;5020590;28;19913;-96
2022/01/24 02:54:42;;;;;;;;;;;3.50;99.90;;;;;;5019923;28;19918;-96
2022/01/24 02:57:10;;;;;;;;;;;3.00;99.90;;;;;;5020732;28;19973;-96
2022/01/24 02:59:37;;;;;;;;;;;3.00;99.90;;;;;;5020448;28;19937;-96
2022/01/24 03:02:04;;;;;;;;;;;3.10;99.90;;;;;;5020207;28;19977;-96
2022/01/24 03:04:31;;;;;;;;;;;3.00;99.90;;;;;;5019849;28;19981;-96
2022/01/24 03:06:57;;;;;;;;;;;3.00;99.90;;;;;;5020378;28;19913;-96
2022/01/24 03:09:24;;;;;;;;;;;3.10;99.90;;;;;;5020312;28;19944;-96
2022/01/24 03:12:01;;;;;;;;;;;2.90;99.90;;;;;;5020107;28;19941;-96
2022/01/24 03:14:29;;;;;;;;;;;3.50;99.90;;;;;;5019553;28;19910;-96
2022/01/24 03:16:56;;;;;;;;;;;2.90;99.90;;;;;;5000662;28;19949;-96
2022/01/24 03:19:22;;;;;;;;;;;3.40;99.90;;;;;;4999741;28;19938;-96
2022/01/24 03:21:49;;;;;;;;;;;3.50;99.90;;;;;;5000359;28;19977;-96
2022/01/24 03:24:16;;;;;;;;;;;3.70;99.90;;;;;;5014086;28;19913;-96
2022/01/24 03:26:43;;;;;;;;;;;2.60;99.90;;;;;;5019960;28;19914;-96
2022/01/24 03:29:11;;;;;;;;;;;3.10;99.90;;;;;;5019841;28;19978;-96
2022/01/24 03:31:38;;;;;;;;;;;3.10;99.90;;;;;;5019903;28;19910;-96
2022/01/24 03:34:05;;;;;;;;;;;3.10;99.90;;;;;;5019350;28;19969;-96
2022/01/24 03:36:31;;;;;;;;;;;4.00;99.90;;;;;;5019812;28;19928;-96
2022/01/24 03:38:58;;;;;;;;;;;3.20;99.90;;;;;;5019589;28;19940;-96
2022/01/24 03:41:25;;;;;;;;;;;3.90;99.90;;;;;;5019502;28;19973;-96
2022/01/24 03:43:52;;;;;;;;;;;3.50;99.90;;;;;;5019051;28;19928;-96
2022/01/24 03:46:28;;;;;;;;;;;3.00;99.90;;;;;;5019658;28;19924;-96
2022/01/24 03:48:56;;;;;;;;;;;3.30;99.90;;;;;;5019422;28;19910;-96
2022/01/24 03:51:23;;;;;;;;;;;3.00;99.90;;;;;;5019168;28;19914;-96
2022/01/24 03:53:50;;;;;;;;;;;3.00;99.90;;;;;;5019080;28;19952;-96
2022/01/24 03:56:17;;;;;;;;;;;3.30;99.90;;;;;;5019385;28;19913;-96
2022/01/24 03:58:45;;;;;;;;;;;3.00;99.90;;;;;;5019425;28;19966;-96
2022/01/24 04:01:11;;;;;;;;;;;2.90;99.90;;;;;;5018899;28;19953;-96
2022/01/24 04:03:40;;;;;;;;;;;3.30;99.90;;;;;;5019113;28;19977;-96
2022/01/24 04:06:07;;;;;;;;;;;2.90;99.90;;;;;;5018983;28;19969;-96
2022/01/24 04:08:33;;;;;;;;;;;3.30;99.90;;;;;;5019193;28;19973;-96
2022/01/24 04:11:01;;;;;;;;;;;3.00;99.90;;;;;;5018793;28;19909;-96
2022/01/24 04:13:32;;;;;;;;;;;3.30;99.90;;;;;;5018991;28;20042;-96
2022/01/24 04:16:27;;;;;;;;;;;2.70;99.90;;;;;;5018987;28;19924;-96
2022/01/24 04:19:05;;;;;;;;;;;3.00;99.90;;;;;;5019008;28;19949;-96
2022/01/24 04:21:33;;;;;;;;;;;3.00;99.90;;;;;;5018408;28;19986;-96
2022/01/24 04:24:04;;;;;;;;;;;3.50;99.90;;;;;;5018755;28;19921;-96
2022/01/24 04:26:31;;;;;;;;;;;3.00;99.90;;;;;;5018897;28;19910;-96
2022/01/24 04:28:58;;;;;;;;;;;3.00;99.90;;;;;;5018528;28;19948;-96
2022/01/24 04:31:25;;;;;;;;;;;3.30;99.90;;;;;;5018546;28;20001;-96
2022/01/24 04:33:52;;;;;;;;;;;3.70;99.90;;;;;;5018591;28;20083;-96
2022/01/24 04:36:21;;;;;;;;;;;4.00;99.90;;;;;;5018640;28;19986;-96
2022/01/24 04:38:48;;;;;;;;;;;3.80;99.90;;;;;;5018728;28;19949;-96
2022/01/24 04:41:19;;;;;;;;;;;3.80;99.90;;;;;;5018306;28;19989;-96
2022/01/24 04:43:57;;;;;;;;;;;3.20;99.90;;;;;;5018350;28;19910;-96
2022/01/24 04:52:11;;;;;;;;;;;3.50;99.90;;;;;;5018627;28;19937;-96
2022/01/24 04:54:40;;;;;;;;;;;3.50;99.90;;;;;;5018291;28;19973;-96
2022/01/24 04:57:08;;;;;;;;;;;3.00;99.90;;;;;;5018356;28;19914;-96
2022/01/24 04:59:35;;;;;;;;;;;3.00;99.90;;;;;;5018123;28;19941;-96
2022/01/24 05:02:02;;;;;;;;;;;3.00;99.90;;;;;;5018294;28;19953;-96
2022/01/24 05:04:29;;;;;;;;;;;3.00;99.90;;;;;;5017965;28;19914;-96
2022/01/24 05:06:57;;;;;;;;;;;3.10;99.90;;;;;;5018367;28;19992;-96
2022/01/24 05:09:25;;;;;;;;;;;3.00;99.90;;;;;;5018068;28;19910;-96
2022/01/24 05:11:56;;;;;;;;;;;3.50;99.90;;;;;;5018368;28;19910;-96
2022/01/24 05:25:30;;;;;;;;;;;3.00;99.90;;;;;;4976700;28;19929;-74
2022/01/24 05:27:56;;;;;;;;;;;3.00;99.90;;;;;;5003667;28;19922;-74
2022/01/24 05:30:23;;;;;;;;;;;3.00;99.90;;;;;;5005064;28;19921;-74
2022/01/24 05:32:49;;;;;;;;;;;3.00;99.90;;;;;;5004457;28;20230;-74
2022/01/24 05:35:16;;;;;;;;;;;3.00;99.90;;;;;;5007534;28;20205;-75
2022/01/24 05:37:44;;;;;;;;;;;3.00;99.90;;;;;;5042881;28;19963;-75
2022/01/24 05:40:11;;;;;;;;;;;3.00;99.90;;;;;;5041914;28;19921;-76
2022/01/24 05:42:38;;;;;;;;;;;3.00;99.90;;;;;;5027400;28;20106;-75
2022/01/24 05:45:05;;;;;;;;;;;3.00;99.90;;;;;;5026598;28;19922;-75
2022/01/24 05:47:31;;;;;;;;;;;3.10;99.90;;;;;;5027304;28;19921;-75
2022/01/24 05:49:58;;;;;;;;;;;3.10;99.90;;;;;;5026859;28;19921;-75
2022/01/24 05:52:24;;;;;;;;;;;3.10;99.90;;;;;;5027502;28;19926;-75
2022/01/24 05:54:52;;;;;;;;;;;3.10;99.90;;;;;;5026694;28;19925;-74
2022/01/24 05:57:19;;;;;;;;;;;3.20;99.90;;;;;;5027737;28;19921;-74
2022/01/24 05:59:45;;;;;;;;;;;3.20;99.90;;;;;;5027827;28;19928;-75
2022/01/24 06:02:14;;;;;;;;;;;3.20;99.90;;;;;;5027353;28;19921;-74
2022/01/24 06:04:47;;;;;;;;;;;3.20;99.90;;;;;;5026945;28;19964;-75
2022/01/24 06:07:14;;;;;;;;;;;3.20;99.90;;;;;;5028393;28;20201;-74
2022/01/24 06:09:41;;;;;;;;;;;3.10;99.90;;;;;;5027622;28;19925;-75
2022/01/24 06:12:10;;;;;;;;;;;3.10;99.90;;;;;;5027827;28;19944;-75
2022/01/24 06:14:36;;;;;;;;;;;3.10;99.90;;;;;;5026143;28;20198;-76
2022/01/24 06:17:10;;;;;;;;;;;3.10;99.90;;;;;;5027105;28;20205;-75
2022/01/24 06:19:37;;;;;;;;;;;3.30;99.90;;;;;;5027307;28;19944;-75
2022/01/24 06:22:04;;;;;;;;;;;3.10;99.90;;;;;;5026926;28;19927;-75
2022/01/24 06:24:30;;;;;;;;;;;3.10;99.90;;;;;;5026271;28;19925;-72
2022/01/24 06:26:57;;;;;;;;;;;3.10;99.90;;;;;;5026930;28;19922;-73
2022/01/24 06:29:25;;;;;;;;;;;3.00;99.90;;;;;;5026306;28;19989;-73
2022/01/24 06:31:51;;;;;;;;;;;3.00;99.90;;;;;;5026124;28;19925;-72
2022/01/24 06:34:19;;;;;;;;;;;3.00;99.90;;;;;;5023133;28;19929;-73
2022/01/24 06:36:46;;;;;;;;;;;3.10;99.90;;;;;;5027541;28;19921;-73
2022/01/24 06:39:14;;;;;;;;;;;3.00;99.90;;;;;;5043908;28;19928;-74
2022/01/24 06:41:42;;;;;;;;;;;3.10;99.90;;;;;;5045805;28;19921;-74
2022/01/24 06:44:09;;;;;;;;;;;3.20;99.90;;;;;;5045156;28;19928;-74
2022/01/24 06:46:37;;;;;;;;;;;3.20;99.90;;;;;;5045628;28;19925;-74
2022/01/24 06:49:04;;;;;;;;;;;3.20;99.90;;;;;;5045271;28;19921;-74
2022/01/24 06:51:30;;;;;;;;;;;3.20;99.90;;;;;;5045866;28;19927;-73
2022/01/24 06:53:57;;;;;;;;;;;3.20;99.90;;;;;;5043595;28;19928;-72
2022/01/24 06:56:23;;;;;;;;;;;3.20;99.90;;;;;;5046087;28;20217;-75
2022/01/24 06:58:50;;;;;;;;;;;3.10;99.90;;;;;;5045953;28;20200;-75
2022/01/24 07:01:16;;;;;;;;;;;3.10;99.90;;;;;;5045298;28;19925;-75
2022/01/24 07:03:44;;;;;;;;;;;3.10;99.90;;;;;;5045117;28;19984;-75
2022/01/24 07:06:11;;;;;;;;;;;3.10;99.90;;;;;;5045770;28;19928;-75
2022/01/24 07:08:40;;;;;;;;;;;3.20;99.90;;;;;;5046393;28;19928;-75
2022/01/24 07:11:07;;;;;;;;;;;3.20;99.90;;;;;;5045422;28;20156;-75
2022/01/24 07:13:34;;;;;;;;;;;3.20;99.90;;;;;;5044708;28;20251;-75
2022/01/24 07:16:03;;;;;;;;;;;3.10;99.90;;;;;;5045355;28;19988;-76
2022/01/24 07:21:16;;;;;;;;;;;3.00;99.90;;;;;;5045681;28;19959;-76
2022/01/24 07:23:42;;;;;;;;;;;3.10;99.90;;;;;;5044682;28;19921;-75
2022/01/24 07:26:09;;;;;;;;;;;3.10;99.90;;;;;;5045323;28;19921;-75
2022/01/24 07:28:35;;;;;;;;;;;3.10;99.90;;;;;;5045239;28;19928;-75
2022/01/24 07:31:02;;;;;;;;;;;3.10;99.90;;;;;;5045211;28;19921;-75
2022/01/24 07:33:29;;;;;;;;;;;3.10;99.90;;;;;;5042833;28;20124;-76
2022/01/24 07:35:59;;;;;;;;;;;3.00;99.90;;;;;;5044829;28;19984;-75
2022/01/24 07:38:27;;;;;;;;;;;3.00;99.90;;;;;;5044913;28;19921;-75
2022/01/24 07:40:55;;;;;;;;;;;3.00;99.90;;;;;;5045219;28;20217;-75
2022/01/24 07:43:25;;;;;;;;;;;2.90;99.90;;;;;;5044808;28;19992;-75
2022/01/24 07:45:52;;;;;;;;;;;3.00;99.90;;;;;;5044558;28;19928;-75
2022/01/24 07:48:19;;;;;;;;;;;3.00;99.90;;;;;;5044475;28;19921;-74
2022/01/24 07:50:46;;;;;;;;;;;3.10;99.90;;;;;;5044510;28;20224;-75
2022/01/24 07:53:16;;;;;;;;;;;3.10;99.90;;;;;;5044204;28;19983;-75
2022/01/24 07:55:44;;;;;;;;;;;3.10;99.90;;;;;;5044052;28;20213;-75
2022/01/24 07:58:11;;;;;;;;;;;3.10;99.90;;;;;;5044618;28;19928;-75
2022/01/24 08:00:38;;;;;;;;;;;3.10;99.90;;;;;;5044787;28;19921;-75
2022/01/24 08:03:05;;;;;;;;;;;3.20;99.90;;;;;;5044251;28;19921;-75
2022/01/24 08:05:32;;;;;;;;;;;3.10;99.90;;;;;;5043258;28;19921;-75
2022/01/24 08:07:59;;;;;;;;;;;3.10;99.90;;;;;;5041116;28;20144;-75
2022/01/24 08:10:25;;;;;;;;;;;3.10;99.90;;;;;;5044596;28;19921;-75
2022/01/24 08:12:53;;;;;;;;;;;3.10;99.90;;;;;;5044226;28;19921;-76
2022/01/24 08:15:20;;;;;;;;;;;3.10;99.90;;;;;;5043601;28;20097;-76
2022/01/24 08:17:47;;;;;;;;;;;3.10;99.90;;;;;;5044267;28;19921;-75
2022/01/24 08:20:15;;;;;;;;;;;3.10;99.90;;;;;;5042527;28;20264;-75
2022/01/24 08:22:42;;;;;;;;;;;3.10;99.90;;;;;;5044025;28;19928;-75
2022/01/24 08:25:09;;;;;;;;;;;3.00;99.90;;;;;;5043557;28;19928;-75
2022/01/24 08:27:36;;;;;;;;;;;3.10;99.90;;;;;;5044709;28;19921;-75
2022/01/24 08:30:05;;;;;;;;;;;3.10;99.90;;;;;;5044100;28;19921;-75
2022/01/24 08:32:32;;;;;;;;;;;3.10;99.90;;;;;;5043879;28;19924;-75
2022/01/24 08:34:59;;;;;;;;;;;3.20;99.90;;;;;;5041561;28;19921;-75
2022/01/24 08:37:26;;;;;;;;;;;3.10;99.90;;;;;;5044039;28;19921;-75
2022/01/24 08:39:54;;;;;;;;;;;3.10;99.90;;;;;;5043947;28;20116;-75
2022/01/24 08:42:28;;;;;;;;;;;3.10;99.90;;;;;;5043462;28;20247;-75
2022/01/24 08:47:40;;;;;;;;;;;3.10;99.90;;;;;;5004929;28;19932;-75
2022/01/24 08:50:07;;;;;;;;;;;3.10;99.90;;;;;;5023929;28;20121;-75
2022/01/24 08:52:34;;;;;;;;;;;3.10;99.90;;;;;;5018076;28;20215;-75
2022/01/24 08:55:00;;;;;;;;;;;3.10;99.90;;;;;;5003550;28;20129;-75
2022/01/24 08:57:27;;;;;;;;;;;3.20;99.90;;;;;;5003884;28;19928;-75
2022/01/24 08:59:54;;;;;;;;;;;3.20;99.90;;;;;;5001767;28;19990;-76
2022/01/24 09:02:21;;;;;;;;;;;3.20;99.90;;;;;;5020198;28;20144;-76
2022/01/24 09:04:49;;;;;;;;;;;3.20;99.90;;;;;;5023298;28;20035;-75
2022/01/24 09:07:18;;;;;;;;;;;3.20;99.90;;;;;;5023843;28;19992;-75
2022/01/24 09:09:44;;;;;;;;;;;3.20;99.90;;;;;;5023535;28;20220;-75
2022/01/24 09:12:12;;;;;;;;;;;3.20;99.90;;;;;;5023504;28;19936;-74
2022/01/24 09:14:39;;;;;;;;;;;3.20;99.90;;;;;;5022743;28;19933;-75
2022/01/24 09:17:06;;;;;;;;;;;3.20;99.90;;;;;;5025746;28;20117;-75
2022/01/24 09:19:32;;;;;;;;;;;3.20;99.90;;;;;;5010448;28;20213;-75
2022/01/24 09:22:00;;;;;;;;;;;3.20;99.90;;;;;;5008423;28;20172;-75
2022/01/24 09:24:27;;;;;;;;;;;3.30;99.90;;;;;;5007128;28;19922;-75
2022/01/24 09:26:53;;;;;;;;;;;3.30;99.90;;;;;;5007584;28;19945;-75
2022/01/24 09:29:20;;;;;;;;;;;3.30;99.90;;;;;;5007713;28;19976;-75
2022/01/24 09:31:47;;;;;;;;;;;3.30;99.90;;;;;;5007837;28;19922;-75
2022/01/24 09:34:13;;;;;;;;;;;3.30;99.90;;;;;;5006953;28;19928;-75
2022/01/24 09:36:40;;;;;;;;;;;3.30;99.90;;;;;;5007826;28;19926;-75
2022/01/24 09:39:08;;;;;;;;;;;3.30;99.90;;;;;;5007374;28;20210;-75
2022/01/24 09:41:35;;;;;;;;;;;3.30;99.90;;;;;;5007381;28;20190;-75
2022/01/24 09:44:01;;;;;;;;;;;3.30;99.90;;;;;;5027225;28;19947;-75
2022/01/24 09:46:28;;;;;;;;;;;3.30;99.90;;;;;;5039868;28;19928;-72
2022/01/24 09:48:56;;;;;;;;;;;3.30;99.90;;;;;;5044807;28;19921;-75
2022/01/24 09:51:22;;;;;;;;;;;3.30;99.90;;;;;;5045388;28;19921;-74
2022/01/24 09:53:49;;;;;;;;;;;3.30;99.90;;;;;;5044652;28;20123;-75
2022/01/24 09:56:17;;;;;;;;;;;3.30;99.90;;;;;;5045993;28;19921;-75
2022/01/24 09:58:44;;;;;;;;;;;3.30;99.90;;;;;;5045448;28;19920;-75
2022/01/24 10:01:13;;;;;;;;;;;3.30;99.90;;;;;;5046651;28;19944;-74
2022/01/24 10:03:39;;;;;;;;;;;3.30;99.90;;;;;;5045960;28;19921;-75
2022/01/24 10:06:07;;;;;;;;;;;3.30;99.90;;;;;;5045068;28;19929;-76
2022/01/24 10:08:35;;;;;;;;;;;3.40;99.90;;;;;;5046648;28;19928;-75
2022/01/24 10:11:06;;;;;;;;;;;3.30;99.90;;;;;;5044327;28;19921;-75
2022/01/24 10:16:26;;;;;;;;;;;3.40;99.90;;;;;;5045687;28;20131;-76
2022/01/24 10:19:03;;;;;;;;;;;3.30;99.90;;;;;;5046699;28;20212;-75
2022/01/24 10:21:36;;;;;;;;;;;3.30;99.90;;;;;;5015330;28;19971;-75
2022/01/24 10:24:03;;;;;;;;;;;3.30;99.90;;;;;;5006216;28;20188;-76
2022/01/24 10:26:29;;;;;;;;;;;3.30;99.90;;;;;;5006814;28;20213;-73
2022/01/24 10:28:57;;;;;;;;;;;3.40;99.90;;;;;;5006757;28;19922;-75
2022/01/24 10:31:28;;;;;;;;;;;3.30;99.90;;;;;;5006825;28;19929;-76
2022/01/24 10:34:03;;;;;;;;;;;3.40;99.90;;;;;;5006413;28;19957;-76
2022/01/24 10:36:40;;;;;;;;;;;3.40;99.90;;;;;;5006585;28;19990;-75
2022/01/24 10:39:08;;;;;;;;;;;3.40;99.90;;;;;;5006501;28;20213;-73
2022/01/24 10:41:52;;;;;;;;;;;3.40;99.90;;;;;;5006798;28;19922;-73
2022/01/24 10:44:28;;;;;;;;;;;3.40;99.90;;;;;;5005241;28;20232;-73
2022/01/24 10:47:10;;;;;;;;;;;3.40;99.90;;;;;;5005901;28;19925;-73
2022/01/24 10:49:36;;;;;;;;;;;3.40;99.90;;;;;;5006344;28;19928;-72
2022/01/24 10:52:09;;;;;;;;;;;3.40;99.90;;;;;;5006266;28;19921;-75
2022/01/24 10:54:35;;;;;;;;;;;3.40;99.90;;;;;;5006926;28;19922;-74
2022/01/24 10:57:02;;;;;;;;;;;3.40;99.90;;;;;;5006248;28;20129;-73
2022/01/24 10:59:30;;;;;;;;;;;3.40;99.90;;;;;;5006255;28;19925;-72
2022/01/24 11:01:57;;;;;;;;;;;3.40;99.90;;;;;;5005910;28;19925;-72
2022/01/24 11:04:26;;;;;;;;;;;3.40;99.90;;;;;;5005201;28;19922;-73
2022/01/24 11:06:54;;;;;;;;;;;3.40;99.90;;;;;;5004623;28;19922;-74
2022/01/24 11:09:24;;;;;;;;;;;3.40;99.90;;;;;;5004766;28;19945;-74
2022/01/24 11:11:52;;;;;;;;;;;3.50;99.90;;;;;;5005212;28;19929;-74
2022/01/24 11:14:20;;;;;;;;;;;3.50;99.90;;;;;;5004987;28;19929;-74
2022/01/24 11:16:49;;;;;;;;;;;3.50;99.90;;;;;;5012208;28;19930;-74
2022/01/24 11:19:21;;;;;;;;;;;3.50;99.90;;;;;;5008156;28;20091;-75
2022/01/24 11:21:48;;;;;;;;;;;3.50;99.90;;;;;;5005533;28;19929;-74
2022/01/24 11:24:21;;;;;;;;;;;3.60;99.90;;;;;;5010336;28;20120;-75
2022/01/24 11:26:48;;;;;;;;;;;3.60;99.90;;;;;;5022873;28;19926;-74
2022/01/24 11:29:17;;;;;;;;;;;3.60;99.90;;;;;;5025294;28;19926;-74
2022/01/24 11:31:45;;;;;;;;;;;3.60;99.90;;;;;;5025059;28;20124;-73
2022/01/24 11:34:16;;;;;;;;;;;3.60;99.90;;;;;;5007606;28;19933;-75
2022/01/24 11:36:43;;;;;;;;;;;3.70;99.90;;;;;;5005435;28;19926;-76
2022/01/24 11:39:11;;;;;;;;;;;3.70;99.90;;;;;;5004810;28;19989;-76
2022/01/24 11:41:39;;;;;;;;;;;3.70;99.90;;;;;;5005921;28;19922;-76
2022/01/24 11:44:09;;;;;;;;;;;3.70;99.90;;;;;;5004799;28;19921;-73
2022/01/24 11:46:41;;;;;;;;;;;3.80;99.90;;;;;;5005713;28;19922;-75
2022/01/24 11:49:09;;;;;;;;;;;3.80;99.90;;;;;;5005411;28;19925;-75
2022/01/24 11:51:39;;;;;;;;;;;3.80;99.90;;;;;;5005252;28;19922;-75
2022/01/24 11:54:29;;;;;;;;;;;3.70;99.90;;;;;;5004793;28;19947;-73
2022/01/24 11:57:11;;;;;;;;;;;3.80;99.90;;;;;;5005655;28;19922;-75
2022/01/24 11:59:37;;;;;;;;;;;3.70;99.90;;;;;;5004821;28;20242;-74
2022/01/24 12:02:08;;;;;;;;;;;3.80;99.90;;;;;;5005398;28;19922;-74
2022/01/24 12:04:50;;;;;;;;;;;3.80;99.90;;;;;;5004567;28;19976;-76
2022/01/24 12:07:20;;;;;;;;;;;3.80;99.90;;;;;;5004967;28;19972;-74
2022/01/24 12:09:46;;;;;;;;;;;3.80;99.90;;;;;;5004908;28;19928;-76
2022/01/24 12:12:34;;;;;;;;;;;3.80;99.90;;;;;;5005286;28;19928;-76
2022/01/24 12:15:01;;;;;;;;;;;3.90;99.90;;;;;;5004290;28;19968;-76
2022/01/24 12:17:44;;;;;;;;;;;3.90;99.90;;;;;;5005234;28;19929;-78
2022/01/24 12:20:25;;;;;;;;;;;4.00;99.90;;;;;;5005343;28;19922;-76
2022/01/24 12:22:53;;;;;;;;;;;4.00;99.90;;;;;;5004102;28;19922;-75
2022/01/24 12:25:20;;;;;;;;;;;4.10;99.90;;;;;;5022204;28;19925;-75
2022/01/24 12:28:01;;;;;;;;;;;4.00;99.90;;;;;;5026127;28;20240;-76
2022/01/24 12:30:42;;;;;;;;;;;4.00;99.90;;;;;;5027570;28;19922;-74
2022/01/24 12:33:09;;;;;;;;;;;4.00;99.90;;;;;;5027867;28;19925;-73
2022/01/24 12:35:43;;;;;;;;;;;4.00;99.90;;;;;;5023947;28;20131;-73
2022/01/24 12:38:17;;;;;;;;;;;3.90;99.90;;;;;;5024677;28;19922;-76
2022/01/24 12:40:45;;;;;;;;;;;3.90;99.90;;;;;;5024331;28;19928;-73
2022/01/24 12:43:19;;;;;;;;;;;4.00;99.90;;;;;;5024295;28;20113;-73
2022/01/24 12:48:38;;;;;;;;;;;4.00;99.90;;;;;;5023419;28;19917;-76
2022/01/24 12:51:07;;;;;;;;;;;4.00;99.90;;;;;;5023969;28;19925;-75
2022/01/24 12:53:39;;;;;;;;;;;3.90;99.90;;;;;;5023722;28;19921;-74
2022/01/24 12:56:07;;;;;;;;;;;4.00;99.90;;;;;;5023678;28;20197;-73
2022/01/24 12:58:34;;;;;;;;;;;4.00;99.90;;;;;;5024091;28;19927;-74
2022/01/24 13:01:01;;;;;;;;;;;4.00;99.90;;;;;;5023255;28;20235;-74
2022/01/24 13:03:46;;;;;;;;;;;4.00;99.90;;;;;;5003618;28;19922;-73
2022/01/24 13:06:13;;;;;;;;;;;4.00;99.90;;;;;;5003772;28;19921;-74
2022/01/24 13:08:51;;;;;;;;;;;4.00;99.90;;;;;;5004054;28;19922;-74
2022/01/24 13:11:17;;;;;;;;;;;4.10;99.90;;;;;;5004359;28;19928;-74
2022/01/24 13:13:57;;;;;;;;;;;4.10;99.90;;;;;;5003674;28;19926;-74
2022/01/24 13:22:07;;;;;;;;;;;4.10;99.90;;;;;;5018277;28;19963;-74
2022/01/24 13:24:37;;;;;;;;;;;4.10;99.90;;;;;;5032393;28;19921;-74
2022/01/24 13:27:05;;;;;;;;;;;4.20;99.90;;;;;;5023304;28;19922;-74
2022/01/24 13:29:37;;;;;;;;;;;4.10;99.90;;;;;;5021299;28;19960;-74
2022/01/24 13:32:04;;;;;;;;;;;4.20;99.90;;;;;;5029513;28;19922;-74
2022/01/24 13:34:33;;;;;;;;;;;4.20;99.90;;;;;;5006806;28;20399;-74
2022/01/24 13:37:06;;;;;;;;;;;4.20;99.90;;;;;;5009720;28;19922;-74
2022/01/24 13:39:33;;;;;;;;;;;4.20;99.90;;;;;;5029748;28;19929;-74
2022/01/24 13:42:00;;;;;;;;;;;4.30;99.90;;;;;;5013533;28;19928;-75
2022/01/24 13:44:27;;;;;;;;;;;4.30;99.90;;;;;;5025927;28;19944;-73
2022/01/24 13:47:08;;;;;;;;;;;4.30;99.90;;;;;;5035173;28;19921;-74
2022/01/24 13:49:35;;;;;;;;;;;4.20;99.90;;;;;;5034879;28;19921;-75
2022/01/24 13:52:07;;;;;;;;;;;4.10;99.90;;;;;;5025709;28;20204;-74
2022/01/24 13:54:37;;;;;;;;;;;4.10;99.90;;;;;;5032953;28;19928;-74
2022/01/24 13:57:08;;;;;;;;;;;4.10;99.90;;;;;;5034633;28;20102;-73
2022/01/24 13:59:35;;;;;;;;;;;4.10;99.90;;;;;;5009577;28;19925;-74
2022/01/24 14:02:03;;;;;;;;;;;4.10;99.90;;;;;;5015354;28;19921;-73
2022/01/24 14:04:35;;;;;;;;;;;4.10;99.90;;;;;;5026593;28;19921;-74
2022/01/24 14:07:03;;;;;;;;;;;4.10;99.90;;;;;;5025208;28;19928;-73
2022/01/24 14:09:34;;;;;;;;;;;4.10;99.90;;;;;;5039350;28;20109;-74
2022/01/24 14:12:01;;;;;;;;;;;4.10;99.90;;;;;;5007428;28;19928;-74
2022/01/24 14:14:38;;;;;;;;;;;4.20;99.90;;;;;;5013563;28;19922;-74
2022/01/24 14:17:18;;;;;;;;;;;4.20;99.90;;;;;;5017543;28;20016;-74
2022/01/24 14:19:44;;;;;;;;;;;4.20;99.90;;;;;;5021890;28;19921;-74
2022/01/24 14:22:13;;;;;;;;;;;4.20;99.90;;;;;;5022178;28;20272;-74
2022/01/24 14:24:47;;;;;;;;;;;4.10;99.90;;;;;;5005760;28;19930;-74
2022/01/24 14:27:14;;;;;;;;;;;4.10;99.90;;;;;;5007374;28;19922;-74
2022/01/24 14:29:42;;;;;;;;;;;4.10;99.90;;;;;;5030912;28;19933;-73
2022/01/24 14:32:13;;;;;;;;;;;4.10;99.90;;;;;;5032896;28;19922;-74
2022/01/24 14:34:40;;;;;;;;;;;4.00;99.90;;;;;;5032984;28;19984;-72
2022/01/24 14:37:07;;;;;;;;;;;4.00;99.90;;;;;;5035583;28;20329;-73
2022/01/24 14:39:42;;;;;;;;;;;4.00;99.90;;;;;;5045782;28;20152;-74
2022/01/24 14:42:12;;;;;;;;;;;3.90;99.90;;;;;;5032257;28;19921;-73
2022/01/24 14:44:53;;;;;;;;;;;3.90;99.90;;;;;;5044558;28;19964;-73
2022/01/24 14:47:21;;;;;;;;;;;4.00;99.90;;;;;;5037220;28;19921;-73
2022/01/24 14:49:47;;;;;;;;;;;3.90;99.90;;;;;;5015344;28;19921;-74
2022/01/24 14:52:18;;;;;;;;;;;3.90;99.90;;;;;;5026279;28;19928;-72
2022/01/24 14:54:45;;;;;;;;;;;3.90;99.90;;;;;;5024508;28;19929;-72
2022/01/24 14:57:12;;;;;;;;;;;3.90;99.90;;;;;;5037601;28;19921;-73
2022/01/24 14:59:42;;;;;;;;;;;4.00;99.90;;;;;;5045003;28;19932;-72
2022/01/24 15:02:09;;;;;;;;;;;4.00;99.90;;;;;;5041007;28;19922;-74
2022/01/24 15:04:37;;;;;;;;;;;3.90;99.90;;;;;;5024148;28;20112;-74
2022/01/24 15:07:03;;;;;;;;;;;4.00;99.90;;;;;;5024893;28;19925;-73
2022/01/24 15:09:31;;;;;;;;;;;4.00;99.90;;;;;;5028827;28;19922;-73
2022/01/24 15:11:59;;;;;;;;;;;4.00;99.90;;;;;;5027809;28;19953;-74
2022/01/24 15:14:30;;;;;;;;;;;4.00;99.90;;;;;;5043032;28;19959;-73
2022/01/24 15:17:05;;;;;;;;;;;4.00;99.90;;;;;;5045341;28;19933;-73
2022/01/24 15:27:47;;;;;;;;;;;4.00;99.90;;;;;;5025356;28;19988;-71
2022/01/24 15:30:14;;;;;;;;;;;4.00;99.90;;;;;;5025496;28;19921;-71
2022/01/24 15:32:41;;;;;;;;;;;3.90;99.90;;;;;;5038051;28;19925;-71
2022/01/24 15:35:08;;;;;;;;;;;3.90;99.90;;;;;;5026095;28;19928;-71
2022/01/24 15:37:36;;;;;;;;;;;3.90;99.90;;;;;;5029246;28;19921;-72
2022/01/24 15:40:03;;;;;;;;;;;3.90;99.90;;;;;;5045039;28;19921;-72
2022/01/24 15:42:41;;;;;;;;;;;3.90;99.90;;;;;;5045068;28;19921;-72
2022/01/24 15:47:48;;;;;;;;;;;4.00;99.90;;;;;;5021568;28;19985;-72
2022/01/24 15:50:16;;;;;;;;;;;3.90;99.90;;;;;;5043557;28;19921;-71
2022/01/24 15:52:44;;;;;;;;;;;3.90;99.90;;;;;;5031224;28;19921;-71
2022/01/24 15:55:12;;;;;;;;;;;3.90;99.90;;;;;;5024140;28;20235;-71
2022/01/24 15:57:40;;;;;;;;;;;3.90;99.90;;;;;;5024926;28;19968;-71
2022/01/24 16:00:08;;;;;;;;;;;3.90;99.90;;;;;;5024997;28;19984;-70
2022/01/24 16:02:35;;;;;;;;;;;3.90;99.90;;;;;;5036883;28;19927;-70
2022/01/24 16:05:01;;;;;;;;;;;3.80;99.90;;;;;;5043498;28;19922;-71
2022/01/24 16:07:28;;;;;;;;;;;3.80;99.90;;;;;;5040334;28;19921;-71
2022/01/24 16:09:58;;;;;;;;;;;3.80;99.90;;;;;;5022312;28;20200;-71
2022/01/24 16:12:25;;;;;;;;;;;3.80;99.90;;;;;;5024952;28;19928;-71